| Date | Time | Temp. (oF) | Dew Point (oF) | Rel. Hum. (%) | Press. (in.) | Wind Dir. | Wind Speed (mph) | Hourly Rainfall (in.) |
|
|---|---|---|---|---|---|---|---|---|---|
| 1 | 10/24 | 00:00 | 35 | 33 | 93 | 30.56 | S | 0 | 0.00 |
| 2 | 10/23 | 23:00 | 37 | 34 | 91 | 30.56 | S | 0 | 0.00 |
| 3 | 10/23 | 22:00 | 38 | 34 | 87 | 30.56 | S | 0 | 0.00 |
| 4 | 10/23 | 21:00 | 40 | 35 | 83 | 30.56 | S | 2 | 0.00 |
| 5 | 10/23 | 20:00 | 45 | 35 | 70 | 30.56 | ENE | 0 | 0.00 |
| 6 | 10/23 | 19:00 | 49 | 35 | 60 | 30.55 | ENE | 0 | 0.00 |
| 7 | 10/23 | 18:00 | 53 | 36 | 53 | 30.53 | ENE | 4 | 0.00 |
| 8 | 10/23 | 17:00 | 55 | 36 | 49 | 30.52 | ESE | 3 | 0.00 |
| 9 | 10/23 | 16:00 | 56 | 37 | 49 | 30.54 | NE | 5 | 0.00 |
| 10 | 10/23 | 15:00 | 55 | 36 | 50 | 30.55 | SSW | 1 | 0.00 |
| 11 | 10/23 | 14:00 | 54 | 37 | 53 | 30.58 | ENE | 7 | 0.00 |
| 12 | 10/23 | 13:00 | 52 | 38 | 59 | 30.61 | NE | 3 | 0.00 |
| 13 | 10/23 | 12:00 | 49 | 38 | 68 | 30.62 | SSE | 2 | 0.00 |
| 14 | 10/23 | 11:00 | 46 | 36 | 69 | 30.63 | NE | 5 | 0.00 |
| 15 | 10/23 | 10:00 | 43 | 35 | 75 | 30.63 | NNE | 3 | 0.00 |
| 16 | 10/23 | 09:00 | 38 | 35 | 91 | 30.63 | E | 1 | 0.00 |
| 17 | 10/23 | 08:00 | 30 | 29 | 96 | 30.62 | NW | 0 | 0.00 |
| 18 | 10/23 | 07:00 | 31 | 29 | 94 | 30.61 | NW | 0 | 0.00 |
| 19 | 10/23 | 06:00 | 31 | 29 | 95 | 30.60 | WSW | 0 | 0.00 |
| 20 | 10/23 | 05:00 | 32 | 30 | 94 | 30.57 | NNW | 0 | 0.00 |
| 21 | 10/23 | 04:00 | 34 | 30 | 88 | 30.56 | N | 1 | 0.00 |
| 22 | 10/23 | 03:00 | 34 | 29 | 85 | 30.55 | N | 0 | 0.00 |
| 23 | 10/23 | 02:00 | 36 | 30 | 79 | 30.54 | NNW | 0 | 0.00 |
| 24 | 10/23 | 01:00 | 38 | 30 | 75 | 30.53 | NW | 0 | 0.00 |